Terminal Aerodrome Forecast
Issued by NWS

Home | Current Version | Previous Version | Text Only | Print | Product List | Glossary On
Versions: 1 2 3 4 5 6 7 8 9 10 11 12 13 14 15 16 17 18 19
000
FTUS41 KBTV 221303 AAA
TAFMPV
TAF AMD
KMPV 221303Z 2213/2312 00000KT P6SM OVC012
     FM221600 05004KT P6SM OVC015
     FM230000 VRB03KT P6SM OVC012
     FM230400 15004KT P6SM OVC010=

USA.gov is the U.S. government's official web portal to all federal, state and local government web resources and services.